CW1353 Mobile AL US current weather conditions

sailwx.info

Wind from 221

Air temperature 25.0° C
Dewpoint 20.7° C

Last reported at 2019-Jul-20 12:00 UTC.
Time now 2019-Jul-20 13:01 UTC

Location: N 30°36' W 088°16'.
View on Google Maps.

See reports from other nearby stations

  
Tides and Currents Weather Stations Pressure Air Temp Water Temp Dewpoint Dewpoint Depression Visibility Wind Speed Wind Dir Waves Ship Positions
date/time (UTC)wind fromknots sea level pressurealtimeterstation pressurevisibilityair tempwater tempwave heightnotes
2019-Jul-20 12:00 221 25.0
2019-Jul-20 11:50 221 2 gusting 4 25.0
2019-Jul-20 11:40 234 0 gusting 3 24.4
2019-Jul-20 11:30 268 2 gusting 6 24.4
2019-Jul-20 11:20 238 3 gusting 8 24.4
2019-Jul-20 11:10 267 0 gusting 1 24.4
2019-Jul-20 11:00 267 0 gusting 1 24.4
2019-Jul-20 10:50 267 0 gusting 4 23.9
2019-Jul-20 10:40 260 1 gusting 5 24.4
2019-Jul-20 10:30 273 0 gusting 3 24.4
2019-Jul-20 10:20 273 24.4
2019-Jul-20 10:10 140 1 gusting 2 24.4
2019-Jul-20 10:00 111 24.4
2019-Jul-20 09:50 111 24.4
2019-Jul-20 09:40 111 24.4
2019-Jul-20 09:30 111 24.4
2019-Jul-20 09:20 111 0 gusting 1 24.4
2019-Jul-20 09:10 111 0 gusting 1 24.4
2019-Jul-20 09:00 111 0 gusting 1 24.4
2019-Jul-20 08:50 111 0 gusting 1 24.4
2019-Jul-20 08:40 111 0 gusting 1 24.4
2019-Jul-20 08:30 111 24.4
2019-Jul-20 08:20 111 0 gusting 3 24.4
2019-Jul-20 08:10 111 24.4
2019-Jul-20 08:00 092 24.4
2019-Jul-20 07:50 092 24.4
2019-Jul-20 07:40 092 0 gusting 1 24.4
2019-Jul-20 07:30 092 24.4
2019-Jul-20 07:20 092 24.4
2019-Jul-20 07:10 092 24.4
2019-Jul-20 07:00 092 24.4
2019-Jul-20 06:50 092 24.4
2019-Jul-20 06:40 092 24.4
2019-Jul-20 06:30 092 24.4
2019-Jul-20 06:20 092 24.4
2019-Jul-20 06:10 092 24.4
2019-Jul-20 06:00 092 24.4
2019-Jul-20 05:50 092 0 gusting 1 24.4
2019-Jul-20 05:40 092 0 gusting 1 24.4
2019-Jul-20 05:30 092 0 gusting 1 24.4
2019-Jul-20 05:20 092 24.4
2019-Jul-20 05:10 092 0 gusting 1 24.4
2019-Jul-20 05:00 092 24.4
2019-Jul-20 04:50 092 24.4
2019-Jul-20 04:40 092 0 gusting 1 24.4
2019-Jul-20 04:30 092 24.4
2019-Jul-20 04:20 092 24.4
2019-Jul-20 04:10 092 0 gusting 1 24.4
2019-Jul-20 04:00 092 25.0
2019-Jul-20 03:50 092 0 gusting 1 25.0
2019-Jul-20 03:40 092 25.0
2019-Jul-20 03:30 127 0 gusting 1 25.0
2019-Jul-20 03:20 161 25.0
2019-Jul-20 03:10 161 0 gusting 3 25.0
2019-Jul-20 03:00 124 0 gusting 1 25.0
2019-Jul-20 02:50 124 1 gusting 4 25.6
2019-Jul-20 02:40 087 2 gusting 4 25.6
2019-Jul-20 02:30 139 1 gusting 2 25.6
2019-Jul-20 02:20 090 0 gusting 2 25.6
2019-Jul-20 02:10 076 0 gusting 1 25.6
2019-Jul-20 02:00 074 0 gusting 1 26.1
2019-Jul-20 01:50 074 26.1
2019-Jul-20 01:40 082 1 gusting 5 26.1
2019-Jul-20 01:30 071 0 gusting 4 26.1
2019-Jul-20 01:20 052 0 gusting 3 26.1
2019-Jul-20 01:10 052 26.1
2019-Jul-20 01:00 052 1 gusting 4 26.7
2019-Jul-20 00:50 061 2 gusting 4 26.7
2019-Jul-20 00:40 071 1 gusting 5 26.7
2019-Jul-20 00:30 030 4 gusting 7 27.2
2019-Jul-20 00:20 068 2 gusting 6 27.2
2019-Jul-20 00:10 350 1 gusting 9 27.8
2019-Jul-20 00:00 351 0 gusting 5 28.3
2019-Jul-19 23:50 130 0 gusting 1 28.9
2019-Jul-19 23:40 130 0 gusting 3 28.9
2019-Jul-19 23:30 218 0 gusting 1 29.4
2019-Jul-19 23:20 229 0 gusting 1 29.4
2019-Jul-19 23:10 229 0 gusting 3 29.4
2019-Jul-19 23:00 230 1 gusting 6 30.0
2019-Jul-19 22:50 219 0 gusting 4 30.6
2019-Jul-19 22:40 166 3 gusting 6 30.6
2019-Jul-19 22:30 147 2 gusting 7 31.1
2019-Jul-19 22:20 152 4 gusting 6 31.1
2019-Jul-19 22:10 162 3 gusting 7 31.1
2019-Jul-19 22:00 168 4 gusting 7 31.1
2019-Jul-19 21:50 211 3 gusting 9 31.1
2019-Jul-19 21:40 199 2 gusting 10 31.7
2019-Jul-19 21:30 223 2 gusting 12 32.2
2019-Jul-19 21:20 085 3 gusting 9 32.2
2019-Jul-19 21:10 177 5 gusting 8 32.8
2019-Jul-19 21:00 223 5 gusting 9 32.8
2019-Jul-19 20:50 148 3 gusting 10 32.8
2019-Jul-19 20:40 109 4 gusting 7 33.3
2019-Jul-19 20:30 122 5 gusting 8 32.8
2019-Jul-19 20:20 196 3 gusting 9 32.8
2019-Jul-19 20:10 207 2 gusting 7 32.8
2019-Jul-19 20:00 212 3 gusting 9 32.8
2019-Jul-19 19:50 128 3 gusting 7 32.8
2019-Jul-19 19:40 182 4 gusting 9 32.8
2019-Jul-19 19:30 238 6 gusting 11 32.8
2019-Jul-19 19:20 155 5 gusting 8 33.3
2019-Jul-19 19:10 240 4 gusting 8 33.3
2019-Jul-19 19:00 215 3 gusting 6 32.8
2019-Jul-19 18:50 268 3 gusting 7 32.8
2019-Jul-19 18:40 237 4 gusting 8 32.8
2019-Jul-19 18:30 176 3 gusting 7 32.8
2019-Jul-19 18:20 126 4 gusting 6 32.8
2019-Jul-19 18:10 134 5 gusting 7 32.8
2019-Jul-19 18:00 191 2 gusting 9 32.2
2019-Jul-19 17:50 232 5 gusting 9 32.2
2019-Jul-19 17:40 267 3 gusting 8 32.8
2019-Jul-19 17:30 132 3 gusting 6 32.8
2019-Jul-19 17:20 140 3 gusting 6 32.8
2019-Jul-19 17:10 117 3 gusting 8 32.8
2019-Jul-19 17:00 238 4 gusting 6 32.8
2019-Jul-19 16:50 223 4 gusting 5 32.8
2019-Jul-19 16:40 237 1 gusting 4 32.2
2019-Jul-19 16:30 200 1 gusting 6 32.2
2019-Jul-19 16:20 231 3 gusting 5 32.8
2019-Jul-19 16:10 117 0 gusting 3 32.2
2019-Jul-19 16:00 042 0 gusting 3 31.1
2019-Jul-19 15:50 320 0 gusting 1 31.1
2019-Jul-19 15:40 319 31.1
2019-Jul-19 15:30 303 1 gusting 6 31.7
2019-Jul-19 15:20 092 1 gusting 2 31.1
2019-Jul-19 15:10 263 2 gusting 4 30.6
2019-Jul-19 15:00 254 1 gusting 4 30.6
2019-Jul-19 14:50 271 2 gusting 6 30.6
2019-Jul-19 14:40 288 1 gusting 5 30.0
2019-Jul-19 14:30 315 2 gusting 5 30.0
2019-Jul-19 14:20 267 3 gusting 6 30.0
2019-Jul-19 14:10 278 1 gusting 5 30.0
2019-Jul-19 14:00 303 1 gusting 4 29.4
2019-Jul-19 13:50 267 1 gusting 6 29.4
2019-Jul-19 13:40 279 2 gusting 5 28.9
2019-Jul-19 13:30 322 2 gusting 6 28.9
2019-Jul-19 13:20 258 1 gusting 4 28.3
2019-Jul-19 13:10 284 0 gusting 3 27.8
2019-Jul-19 13:00 265 0 gusting 3 27.8
2019-Jul-19 12:50 271 2 gusting 4 27.2
2019-Jul-19 12:40 274 2 gusting 4 26.7
2019-Jul-19 12:30 209 26.1
2019-Jul-19 12:20 209 25.6
2019-Jul-19 12:10 209 25.0
2019-Jul-19 12:00 209 24.4
2019-Jul-19 11:50 209 23.9
2019-Jul-19 11:40 209 23.9
2019-Jul-19 11:30 209 23.9
2019-Jul-19 11:20 209 23.9
2019-Jul-19 11:10 209 23.9
2019-Jul-19 11:00 209 23.9
2019-Jul-19 10:50 209 23.9
2019-Jul-19 10:40 209 23.9
2019-Jul-19 10:30 209 23.9
2019-Jul-19 10:20 209 24.4
2019-Jul-19 10:10 209 24.4
2019-Jul-19 10:00 209 24.4
2019-Jul-19 09:50 209 24.4
2019-Jul-19 09:40 209 24.4
2019-Jul-19 09:30 209 24.4
2019-Jul-19 09:20 209 24.4
2019-Jul-19 09:10 209 24.4
2019-Jul-19 09:00 209 24.4
2019-Jul-19 08:50 209 24.4
2019-Jul-19 08:40 209 24.4
2019-Jul-19 08:30 209 24.4
2019-Jul-19 08:20 209 24.4
2019-Jul-19 08:10 209 24.4
2019-Jul-19 08:00 209 24.4
2019-Jul-19 07:50 209 24.4
2019-Jul-19 07:40 209 24.4
2019-Jul-19 07:30 209 24.4
2019-Jul-19 07:20 209 24.4
2019-Jul-19 07:10 209 24.4
2019-Jul-19 07:00 209 25.0
2019-Jul-19 06:50 209 25.0
2019-Jul-19 06:40 209 25.0
2019-Jul-19 06:30 209 25.0
2019-Jul-19 06:20 209 25.0
2019-Jul-19 06:10 209 25.0
2019-Jul-19 06:00 209 25.0
2019-Jul-19 05:50 209 25.0
2019-Jul-19 05:40 209 25.0
2019-Jul-19 05:30 209 25.0
2019-Jul-19 05:20 209 25.0
2019-Jul-19 05:10 209 25.0
2019-Jul-19 05:00 209 25.6
2019-Jul-19 04:50 209 25.6
2019-Jul-19 04:40 209 25.6
2019-Jul-19 04:30 209 25.6
2019-Jul-19 04:20 209 25.6
2019-Jul-19 04:10 209 25.6
2019-Jul-19 04:00 209 25.6
2019-Jul-19 03:50 209 25.6
2019-Jul-19 03:40 209 26.1
2019-Jul-19 03:30 209 26.1
2019-Jul-19 03:20 209 26.1
2019-Jul-19 03:10 209 26.1
2019-Jul-19 03:00 209 26.1
2019-Jul-19 02:50 209 26.1
2019-Jul-19 02:40 209 26.7
2019-Jul-19 02:30 209 0 gusting 1 26.7
2019-Jul-19 02:20 209 26.7
2019-Jul-19 02:10 209 27.2
2019-Jul-19 02:00 209 27.2
2019-Jul-19 01:50 209 27.2
2019-Jul-19 01:40 209 0 gusting 0 27.8
2019-Jul-19 01:30 209 27.8
2019-Jul-19 01:20 209 0 gusting 1 28.3
2019-Jul-19 01:10 209 28.3
2019-Jul-19 01:00 209 28.9
2019-Jul-19 00:50 211 1 gusting 2 28.9
2019-Jul-19 00:40 211 29.4
2019-Jul-19 00:30 215 0 gusting 5 29.4
2019-Jul-19 00:20 229 1 gusting 5 29.4
2019-Jul-19 00:10 225 1 gusting 4 30.0
2019-Jul-19 00:00 231 2 gusting 6 30.0
2019-Jul-18 23:50 231 3 gusting 6 30.0
2019-Jul-18 23:40 182 2 gusting 6 30.6
2019-Jul-18 23:30 246 3 gusting 7 30.6
2019-Jul-18 23:20 252 4 gusting 6 30.6
2019-Jul-18 23:10 241 3 gusting 5 31.1
2019-Jul-18 23:00 229 1 gusting 6 31.1
2019-Jul-18 22:50 134 0 gusting 6 31.1
2019-Jul-18 22:40 173 2 gusting 6 31.1
2019-Jul-18 22:30 152 2 gusting 6 31.1
2019-Jul-18 22:20 152 1 gusting 7 31.1
2019-Jul-18 22:10 170 3 gusting 8 31.7
2019-Jul-18 22:00 252 2 gusting 6 31.7
2019-Jul-18 21:50 147 2 gusting 5 31.1
2019-Jul-18 21:40 148 0 gusting 4 30.6
2019-Jul-18 21:30 146 1 gusting 4 30.6
2019-Jul-18 21:20 153 2 gusting 4 30.6
2019-Jul-18 21:10 223 1 gusting 4 30.6
2019-Jul-18 21:00 169 1 gusting 4 30.6
2019-Jul-18 20:50 144 2 gusting 5 30.6
2019-Jul-18 20:40 141 1 gusting 5 31.1
2019-Jul-18 20:30 188 0 gusting 5 31.1
2019-Jul-18 20:20 192 2 gusting 5 31.7
2019-Jul-18 20:10 170 3 gusting 8 32.2
2019-Jul-18 20:00 205 3 gusting 8 33.3
2019-Jul-18 19:50 234 3 gusting 8 32.8
2019-Jul-18 19:40 252 5 gusting 10 32.8
2019-Jul-18 19:30 192 4 gusting 8 32.8
2019-Jul-18 19:20 152 3 gusting 6 32.8
2019-Jul-18 19:10 274 4 gusting 7 32.8
2019-Jul-18 19:00 211 1 gusting 6 32.2
2019-Jul-18 18:50 267 1 gusting 5 32.2
2019-Jul-18 18:40 189 2 gusting 7 32.2
2019-Jul-18 18:30 214 4 gusting 7 32.8
2019-Jul-18 18:20 170 3 gusting 8 33.3
2019-Jul-18 18:10 245 4 gusting 6 32.8
2019-Jul-18 18:00 184 1 gusting 4 33.3
2019-Jul-18 17:50 184 0 gusting 5 33.3
2019-Jul-18 17:40 182 3 gusting 6 32.8
2019-Jul-18 17:30 265 1 gusting 6 32.8
2019-Jul-18 17:20 265 2 gusting 4 32.2
2019-Jul-18 17:10 252 0 gusting 4 32.2
2019-Jul-18 17:00 223 3 gusting 6 32.2
2019-Jul-18 16:50 277 1 gusting 6 32.2
2019-Jul-18 16:40 221 1 gusting 5 31.7
2019-Jul-18 16:30 194 4 gusting 6 31.7
2019-Jul-18 16:20 155 1 gusting 4 31.7
2019-Jul-18 16:10 257 2 gusting 5 31.1
2019-Jul-18 16:00 223 3 gusting 6 31.7
2019-Jul-18 15:50 250 1 gusting 6 31.1
2019-Jul-18 15:40 245 1 gusting 5 31.1
2019-Jul-18 15:30 273 3 gusting 6 31.1
2019-Jul-18 15:20 219 0 gusting 4 31.1
2019-Jul-18 15:10 335 0 gusting 4 31.1
2019-Jul-18 15:00 265 1 gusting 5 30.6
2019-Jul-18 14:50 278 0 gusting 6 30.6
2019-Jul-18 14:40 262 2 gusting 4 30.0
2019-Jul-18 14:30 317 2 gusting 5 30.0
2019-Jul-18 14:20 257 0 gusting 5 29.4
2019-Jul-18 14:10 237 2 gusting 6 29.4
2019-Jul-18 14:00 281 2 gusting 6 29.4
2019-Jul-18 13:50 259 3 gusting 6 28.9
2019-Jul-18 13:40 287 0 gusting 6 28.9
2019-Jul-18 13:30 315 1 gusting 4 28.3
2019-Jul-18 13:20 264 0 gusting 6 27.8
2019-Jul-18 13:10 269 1 gusting 6 27.8
2019-Jul-18 13:00 281 4 gusting 6 27.2